Kingsland, Texas
Current Conditions -  °F | °C
As of 9:15 AM on Thursday 30 Oct 2014 (Local Time) from KDZB Reporting Station
Overcast Overcast  
Wind Chill: 64°   Ceiling: 1200
Heat Index: 64°   Visibility: 10mi
Dew Point: 61°   Wind: 3mph
Humidity: 90%   Direction: 140°SE
Pressure: 30.16"   Gusts: NA
Location:  30.66°N, 98.44°W
Report Text: KDZB 301415Z AUTO 14003KT 10SM OVC012 18/16 A3016 RMK AO2 T01790162
Loading
Personal Weather Stations






























Interactive Weather Map New forecast layout! Learn more

10-Day Weather Forecast

Advertisements
Track Severe Weather on mobile